createdAt,value
2018-05-13T00:01:38.104Z,12.60
2018-05-13T00:04:44.126Z,12.50
2018-05-13T00:07:50.279Z,12.60
2018-05-13T00:10:56.539Z,12.60
2018-05-13T00:14:02.652Z,12.70
2018-05-13T00:17:11.675Z,12.50
2018-05-13T00:20:18.826Z,12.60
2018-05-13T00:23:26.471Z,12.60
2018-05-13T00:26:33.082Z,12.70
2018-05-13T00:29:39.434Z,12.90
2018-05-13T00:32:45.801Z,12.80
2018-05-13T00:35:52.436Z,12.80
2018-05-13T00:38:58.693Z,12.70
2018-05-13T00:42:04.111Z,12.70
2018-05-13T00:45:11.175Z,12.70
2018-05-13T00:48:16.595Z,12.50
2018-05-13T00:51:22.669Z,12.40
2018-05-13T00:54:41.037Z,12.20
2018-05-13T00:57:47.072Z,12.20
2018-05-13T01:00:52.940Z,12.10
2018-05-13T01:04:01.340Z,12.20
2018-05-13T01:07:09.283Z,12.20
2018-05-13T01:10:15.205Z,12.20
2018-05-13T01:13:22.470Z,12.30
2018-05-13T01:16:28.700Z,12.30
2018-05-13T01:19:34.768Z,12.30
2018-05-13T01:22:40.893Z,12.20
2018-05-13T01:25:46.867Z,12.20
2018-05-13T01:28:52.944Z,11.70
2018-05-13T01:31:58.889Z,11.70
2018-05-13T01:35:05.051Z,11.50
2018-05-13T01:38:10.989Z,11.50
2018-05-13T01:41:17.133Z,11.60
2018-05-13T01:44:24.267Z,11.50
2018-05-13T01:47:31.200Z,11.40
2018-05-13T01:50:37.651Z,11.40
2018-05-13T01:53:44.161Z,11.50
2018-05-13T01:56:50.105Z,11.50
2018-05-13T01:59:56.145Z,11.40
2018-05-13T02:03:02.268Z,11.30
2018-05-13T02:06:08.763Z,11.30
2018-05-13T02:09:15.690Z,11.10
2018-05-13T02:12:21.576Z,11.10
2018-05-13T02:15:27.601Z,11.10
2018-05-13T02:18:35.129Z,11.00
2018-05-13T02:21:41.660Z,10.90
2018-05-13T02:24:47.872Z,10.90
2018-05-13T02:27:53.950Z,10.90
2018-05-13T02:31:00.145Z,10.80
2018-05-13T02:34:06.221Z,10.80
2018-05-13T02:37:13.269Z,10.90
2018-05-13T02:40:19.427Z,10.90
2018-05-13T02:43:25.677Z,11.10
2018-05-13T02:46:31.617Z,11.10
2018-05-13T02:49:37.615Z,11.20
2018-05-13T02:52:43.653Z,11.50
2018-05-13T02:55:49.628Z,12.30
2018-05-13T02:58:55.605Z,12.30
2018-05-13T03:02:01.702Z,12.70
2018-05-13T03:05:07.987Z,12.90
2018-05-13T03:08:14.870Z,13.10
2018-05-13T03:11:21.397Z,13.30
2018-05-13T03:14:28.507Z,13.50
2018-05-13T03:17:34.756Z,13.50
2018-05-13T03:20:41.634Z,13.60
2018-05-13T03:23:47.759Z,13.70
2018-05-13T03:26:54.856Z,13.80
2018-05-13T03:30:01.166Z,13.70
2018-05-13T03:33:07.152Z,13.80
2018-05-13T03:36:13.423Z,13.80
2018-05-13T03:39:29.598Z,13.70
2018-05-13T03:42:35.749Z,13.70
2018-05-13T03:45:41.922Z,13.60
2018-05-13T03:48:47.914Z,13.60
2018-05-13T03:51:53.945Z,13.60
2018-05-13T03:55:00.071Z,13.60
2018-05-13T03:58:06.375Z,13.60
2018-05-13T04:01:13.321Z,13.60
2018-05-13T04:04:19.340Z,13.60
2018-05-13T04:07:25.454Z,13.60
2018-05-13T04:10:43.472Z,13.60
2018-05-13T04:14:01.850Z,13.70
2018-05-13T04:17:07.979Z,13.70
2018-05-13T04:20:14.100Z,13.80
2018-05-13T04:23:19.390Z,13.80
2018-05-13T04:26:25.821Z,14.00
2018-05-13T04:29:32.634Z,14.00
2018-05-13T04:32:38.984Z,14.30
2018-05-13T04:35:45.703Z,14.40
2018-05-13T04:38:51.503Z,14.40
2018-05-13T04:41:57.685Z,14.60
2018-05-13T04:45:03.833Z,14.60
2018-05-13T04:48:10.937Z,14.80
2018-05-13T04:51:17.772Z,14.70
2018-05-13T04:54:23.799Z,14.80
2018-05-13T04:57:30.149Z,15.10
2018-05-13T05:00:37.134Z,15.10
2018-05-13T05:03:43.047Z,15.30
2018-05-13T05:06:53.032Z,15.50
2018-05-13T05:09:59.847Z,15.60
2018-05-13T05:13:05.812Z,15.60
2018-05-13T05:16:11.831Z,15.70
2018-05-13T05:19:17.767Z,16.10
2018-05-13T05:22:25.690Z,16.10
2018-05-13T05:25:32.812Z,17.60
2018-05-13T05:28:39.195Z,17.50
2018-05-13T05:31:52.783Z,18.50
2018-05-13T05:34:59.622Z,18.90
2018-05-13T05:38:06.218Z,18.30
2018-05-13T05:41:13.050Z,18.30
2018-05-13T05:44:20.143Z,18.00
2018-05-13T05:47:27.187Z,17.10
2018-05-13T05:50:33.386Z,17.00
2018-05-13T05:53:39.466Z,16.90
2018-05-13T05:56:45.753Z,16.70
2018-05-13T05:59:52.851Z,16.60
2018-05-13T06:02:59.809Z,16.50
2018-05-13T06:06:05.813Z,16.50
2018-05-13T06:09:11.780Z,16.30
2018-05-13T06:12:17.735Z,16.30
2018-05-13T06:15:23.817Z,16.30
2018-05-13T06:18:30.214Z,16.40
2018-05-13T06:21:36.793Z,16.40
2018-05-13T06:24:43.222Z,16.50
2018-05-13T06:27:49.157Z,16.80
2018-05-13T06:30:55.675Z,17.20
2018-05-13T06:34:02.226Z,17.20
2018-05-13T06:37:08.309Z,17.30
2018-05-13T06:40:16.501Z,17.20
2018-05-13T06:43:23.255Z,17.20
2018-05-13T06:46:29.365Z,17.10
2018-05-13T06:49:36.574Z,17.00
2018-05-13T06:52:43.342Z,16.90
2018-05-13T06:55:51.585Z,17.20
2018-05-13T06:58:57.637Z,17.20
2018-05-13T07:02:03.783Z,17.40
2018-05-13T07:05:11.120Z,17.50
2018-05-13T07:08:18.008Z,17.40
2018-05-13T07:11:24.276Z,17.60
2018-05-13T07:14:30.063Z,18.50
2018-05-13T07:17:36.067Z,18.50
2018-05-13T07:20:42.139Z,20.20
2018-05-13T07:23:47.231Z,20.10
2018-05-13T07:26:53.627Z,21.50
2018-05-13T07:29:59.722Z,21.50
2018-05-13T07:33:05.847Z,21.80
2018-05-13T07:36:11.542Z,22.10
2018-05-13T07:39:18.233Z,22.20
2018-05-13T07:42:24.550Z,22.10
2018-05-13T07:45:30.548Z,22.50
2018-05-13T07:48:36.651Z,22.90
2018-05-13T07:51:42.506Z,22.90
2018-05-13T07:54:49.286Z,22.70
2018-05-13T07:57:55.292Z,23.10
2018-05-13T08:01:01.271Z,23.00
2018-05-13T08:04:08.281Z,22.80
2018-05-13T08:07:15.412Z,22.60
2018-05-13T08:10:22.943Z,22.60
2018-05-13T08:13:30.825Z,23.20
2018-05-13T08:16:36.644Z,23.30
2018-05-13T08:19:42.850Z,23.10
2018-05-13T08:22:49.279Z,23.50
2018-05-13T08:25:55.233Z,23.40
2018-05-13T08:29:01.784Z,23.90
2018-05-13T08:32:08.354Z,23.80
2018-05-13T08:35:15.311Z,23.80
2018-05-13T08:38:21.606Z,23.70
2018-05-13T08:41:29.732Z,24.20
2018-05-13T08:44:38.102Z,24.80
2018-05-13T08:47:45.055Z,24.80
2018-05-13T08:50:51.563Z,24.70
2018-05-13T08:53:58.451Z,24.30
2018-05-13T08:57:26.749Z,24.30
2018-05-13T09:00:33.283Z,24.50
2018-05-13T09:03:39.347Z,24.70
2018-05-13T09:06:47.258Z,24.70
2018-05-13T09:10:10.094Z,24.90
2018-05-13T09:13:17.327Z,25.50
2018-05-13T09:16:23.233Z,25.50
2018-05-13T09:19:30.219Z,25.50
2018-05-13T09:22:36.868Z,26.20
2018-05-13T09:25:43.000Z,26.20
2018-05-13T09:28:49.097Z,26.50
2018-05-13T09:31:55.312Z,25.90
2018-05-13T09:35:01.779Z,25.70
2018-05-13T09:38:08.951Z,25.60
2018-05-13T09:41:14.784Z,25.50
2018-05-13T09:44:20.763Z,25.90
2018-05-13T09:47:26.109Z,26.50
2018-05-13T09:50:33.589Z,26.50
2018-05-13T09:53:39.870Z,26.50
2018-05-13T09:56:45.984Z,27.20
2018-05-13T09:59:52.285Z,27.50
2018-05-13T10:02:59.543Z,27.50
2018-05-13T10:06:07.219Z,27.00
2018-05-13T10:09:13.903Z,27.00
2018-05-13T10:12:20.708Z,27.30
2018-05-13T10:15:27.617Z,27.10
2018-05-13T10:18:33.921Z,27.00
2018-05-13T10:21:40.949Z,27.00
2018-05-13T10:24:47.307Z,27.00
2018-05-13T10:27:53.234Z,27.00
2018-05-13T10:30:58.606Z,26.70
2018-05-13T10:34:04.744Z,27.20
2018-05-13T10:37:10.734Z,27.20
2018-05-13T10:40:16.602Z,27.80
2018-05-13T10:43:22.897Z,27.50
2018-05-13T10:46:29.663Z,26.80
2018-05-13T10:49:35.753Z,26.80
2018-05-13T10:52:42.004Z,27.50
2018-05-13T10:55:50.345Z,28.30
2018-05-13T10:58:57.762Z,28.60
2018-05-13T11:02:04.870Z,29.20
2018-05-13T11:05:11.898Z,30.10
2018-05-13T11:08:19.660Z,30.00
2018-05-13T11:11:28.142Z,29.80
2018-05-13T11:14:34.711Z,29.70
2018-05-13T11:17:40.775Z,29.80
2018-05-13T11:20:46.761Z,29.30
2018-05-13T11:23:54.620Z,29.20
2018-05-13T11:27:00.710Z,29.30
2018-05-13T11:30:06.889Z,28.70
2018-05-13T11:33:13.199Z,29.50
2018-05-13T11:36:19.592Z,29.40
2018-05-13T11:39:26.659Z,29.60
2018-05-13T11:42:34.736Z,29.00
2018-05-13T11:45:42.441Z,29.00
2018-05-13T11:48:48.434Z,28.20
2018-05-13T11:51:54.499Z,26.40
2018-05-13T11:55:00.908Z,27.20
2018-05-13T11:58:07.113Z,27.10
2018-05-13T12:01:13.487Z,29.80
2018-05-13T12:04:19.554Z,30.90
2018-05-13T12:07:25.844Z,31.60
2018-05-13T12:10:31.932Z,31.60
2018-05-13T12:13:38.828Z,30.50
2018-05-13T12:16:44.995Z,28.80
2018-05-13T12:19:51.073Z,29.00
2018-05-13T12:22:58.321Z,30.10
2018-05-13T12:26:05.931Z,29.80
2018-05-13T12:29:12.012Z,28.40
2018-05-13T12:32:18.156Z,28.50
2018-05-13T12:35:24.289Z,29.60
2018-05-13T12:38:30.306Z,30.00
2018-05-13T12:41:36.799Z,28.10
2018-05-13T12:44:43.538Z,28.00
2018-05-13T12:47:50.324Z,25.50
2018-05-13T12:50:56.372Z,25.40
2018-05-13T12:54:02.141Z,25.10
2018-05-13T12:57:08.262Z,24.70
2018-05-13T13:00:14.538Z,24.50
2018-05-13T13:03:20.471Z,24.00
2018-05-13T13:06:29.498Z,23.60
2018-05-13T13:09:35.287Z,22.90
2018-05-13T13:12:41.124Z,22.90
2018-05-13T13:15:47.077Z,22.90
2018-05-13T13:18:53.131Z,22.70
2018-05-13T13:22:01.608Z,22.40
2018-05-13T13:25:08.976Z,22.10
2018-05-13T13:28:15.830Z,21.90
2018-05-13T13:31:21.850Z,21.90
2018-05-13T13:34:27.906Z,21.40
2018-05-13T13:37:34.016Z,20.40
2018-05-13T13:40:40.255Z,20.40
2018-05-13T13:43:46.365Z,20.10
2018-05-13T13:46:55.603Z,19.70
2018-05-13T13:50:01.652Z,19.60
2018-05-13T13:53:07.723Z,19.40
2018-05-13T13:56:13.617Z,19.10
2018-05-13T13:59:19.623Z,19.00
2018-05-13T14:02:25.577Z,18.90
2018-05-13T14:05:32.147Z,18.80
2018-05-13T14:08:38.466Z,18.60
2018-05-13T14:11:44.463Z,18.40
2018-05-13T14:14:50.381Z,18.30
2018-05-13T14:17:56.641Z,18.10
2018-05-13T14:21:02.904Z,17.80
2018-05-13T14:24:08.269Z,17.50
2018-05-13T14:27:14.310Z,17.20
2018-05-13T14:30:19.683Z,17.20
2018-05-13T14:33:26.789Z,17.20
2018-05-13T14:36:34.613Z,17.30
2018-05-13T14:39:40.811Z,18.10
2018-05-13T14:42:47.080Z,18.10
2018-05-13T14:45:53.728Z,18.70
2018-05-13T14:48:59.802Z,19.50
2018-05-13T14:52:06.525Z,22.20
2018-05-13T14:55:12.524Z,23.00
2018-05-13T14:58:18.712Z,22.80
2018-05-13T15:01:24.131Z,22.70
2018-05-13T15:04:30.500Z,22.90
2018-05-13T15:07:43.477Z,23.30
2018-05-13T15:10:50.403Z,22.90
2018-05-13T15:13:56.840Z,22.30
2018-05-13T15:17:04.303Z,21.20
2018-05-13T15:20:10.447Z,20.90
2018-05-13T15:23:16.165Z,20.90
2018-05-13T15:26:22.342Z,20.70
2018-05-13T15:29:28.460Z,19.90
2018-05-13T15:32:34.680Z,19.60
2018-05-13T15:35:41.059Z,19.50
2018-05-13T15:38:47.981Z,19.30
2018-05-13T15:41:53.161Z,19.30
2018-05-13T15:44:59.123Z,19.40
2018-05-13T15:48:04.998Z,19.30
2018-05-13T15:51:11.459Z,19.30
2018-05-13T15:54:18.443Z,19.30
2018-05-13T15:57:25.145Z,19.50
2018-05-13T16:00:31.473Z,19.60
2018-05-13T16:03:37.680Z,20.20
2018-05-13T16:06:43.706Z,20.50
2018-05-13T16:09:49.920Z,20.70
2018-05-13T16:12:56.000Z,20.60
2018-05-13T16:16:01.936Z,20.60
2018-05-13T16:19:08.003Z,20.40
2018-05-13T16:22:13.983Z,20.30
2018-05-13T16:25:20.220Z,20.20
2018-05-13T16:28:26.306Z,20.30
2018-05-13T16:31:32.409Z,20.50
2018-05-13T16:34:38.576Z,20.40
2018-05-13T16:37:44.898Z,20.40
2018-05-13T16:40:50.945Z,20.40
2018-05-13T16:43:57.124Z,20.30
2018-05-13T16:47:03.479Z,20.20
2018-05-13T16:50:09.690Z,20.10
2018-05-13T16:53:15.993Z,19.90
2018-05-13T16:56:21.760Z,19.90
2018-05-13T16:59:34.356Z,19.40
2018-05-13T17:02:43.310Z,19.30
2018-05-13T17:05:50.991Z,19.00
2018-05-13T17:08:57.754Z,19.00
2018-05-13T17:12:03.921Z,18.80
2018-05-13T17:15:09.970Z,18.10
2018-05-13T17:18:16.094Z,18.10
2018-05-13T17:21:22.267Z,17.90
2018-05-13T17:24:28.917Z,18.00
2018-05-13T17:27:36.106Z,18.20
2018-05-13T17:30:42.328Z,18.20
2018-05-13T17:33:48.847Z,18.20
2018-05-13T17:36:55.688Z,18.20
2018-05-13T17:40:03.932Z,18.10
2018-05-13T17:43:10.014Z,18.10
2018-05-13T17:46:15.254Z,18.00
2018-05-13T17:49:23.356Z,17.90
2018-05-13T17:52:29.372Z,17.90
2018-05-13T17:55:35.842Z,17.80
2018-05-13T17:58:42.460Z,17.60
2018-05-13T18:01:49.887Z,17.10
2018-05-13T18:04:57.845Z,17.00
2018-05-13T18:08:03.819Z,17.00
2018-05-13T18:11:09.673Z,16.90
2018-05-13T18:14:15.810Z,16.70
2018-05-13T18:17:22.045Z,16.50
2018-05-13T18:20:28.343Z,16.10
2018-05-13T18:23:35.354Z,15.70
2018-05-13T18:26:41.537Z,15.60
2018-05-13T18:29:48.808Z,15.50
2018-05-13T18:32:54.779Z,15.40
2018-05-13T18:36:01.920Z,15.40
2018-05-13T18:39:08.329Z,15.20
2018-05-13T18:42:14.653Z,15.20
2018-05-13T18:45:20.698Z,15.10
2018-05-13T18:48:26.957Z,15.10
2018-05-13T18:51:35.720Z,15.10
2018-05-13T18:54:41.814Z,15.00
2018-05-13T18:57:48.131Z,15.00
2018-05-13T19:00:55.060Z,14.90
2018-05-13T19:04:01.233Z,14.90
2018-05-13T19:07:07.675Z,14.90
2018-05-13T19:10:12.912Z,14.90
2018-05-13T19:13:18.832Z,14.80
2018-05-13T19:16:24.756Z,14.70
2018-05-13T19:19:31.049Z,14.70
2018-05-13T19:22:37.304Z,14.70
2018-05-13T19:25:43.322Z,14.60
2018-05-13T19:28:49.778Z,14.60
2018-05-13T19:31:56.559Z,14.50
2018-05-13T19:35:02.602Z,14.50
2018-05-13T19:38:08.123Z,14.50
2018-05-13T19:41:14.312Z,14.50
2018-05-13T19:44:20.648Z,14.50
2018-05-13T19:47:26.626Z,14.50
2018-05-13T19:50:32.764Z,14.40
2018-05-13T19:53:39.168Z,14.50
2018-05-13T19:56:45.976Z,14.50
2018-05-13T19:59:52.242Z,14.40
2018-05-13T20:02:58.355Z,14.40
2018-05-13T20:06:04.727Z,14.40
2018-05-13T20:09:10.218Z,14.40
2018-05-13T20:12:16.257Z,14.50
2018-05-13T20:15:22.553Z,14.40
2018-05-13T20:18:29.620Z,14.30
2018-05-13T20:21:35.655Z,14.40
2018-05-13T20:24:41.770Z,14.40
2018-05-13T20:27:48.028Z,14.50
2018-05-13T20:30:54.299Z,14.50
2018-05-13T20:34:00.250Z,14.60
2018-05-13T20:37:06.474Z,14.60
2018-05-13T20:40:13.683Z,14.60
2018-05-13T20:43:19.820Z,14.50
2018-05-13T20:46:25.896Z,14.60
2018-05-13T20:49:31.962Z,14.70
2018-05-13T20:52:37.831Z,14.70
2018-05-13T20:55:44.209Z,14.70
2018-05-13T20:58:51.782Z,14.60
2018-05-13T21:01:58.944Z,14.60
2018-05-13T21:05:05.547Z,14.60
2018-05-13T21:08:11.385Z,14.50
2018-05-13T21:11:18.468Z,14.30
2018-05-13T21:14:25.759Z,14.30
2018-05-13T21:17:32.698Z,14.10
2018-05-13T21:20:39.017Z,14.10
2018-05-13T21:23:45.117Z,14.00
2018-05-13T21:26:51.026Z,14.00
2018-05-13T21:29:57.037Z,14.00
2018-05-13T21:33:03.306Z,14.10
2018-05-13T21:36:09.505Z,14.10
2018-05-13T21:39:15.889Z,14.20
2018-05-13T21:42:23.145Z,14.20
2018-05-13T21:45:29.238Z,14.20
2018-05-13T21:48:35.521Z,14.20
2018-05-13T21:51:41.462Z,14.30
2018-05-13T21:54:47.766Z,14.40
2018-05-13T21:57:54.512Z,14.40
2018-05-13T22:01:00.504Z,14.40
2018-05-13T22:04:13.654Z,14.40
2018-05-13T22:07:26.733Z,14.30
2018-05-13T22:10:32.748Z,14.40
2018-05-13T22:13:38.815Z,14.40
2018-05-13T22:16:45.900Z,14.40
2018-05-13T22:19:51.976Z,14.40
2018-05-13T22:22:58.418Z,14.40
2018-05-13T22:26:06.186Z,14.50
2018-05-13T22:29:12.536Z,14.50
2018-05-13T22:32:20.432Z,14.30
2018-05-13T22:35:26.327Z,14.30
2018-05-13T22:38:32.162Z,14.20
2018-05-13T22:41:38.449Z,14.20
2018-05-13T22:44:45.492Z,14.20
2018-05-13T22:47:51.697Z,14.10
2018-05-13T22:50:57.868Z,14.10
2018-05-13T22:54:04.221Z,14.20
2018-05-13T22:57:10.049Z,14.20
2018-05-13T23:00:17.013Z,14.30
2018-05-13T23:03:23.138Z,14.20
2018-05-13T23:06:29.337Z,14.30
2018-05-13T23:09:35.916Z,14.30
2018-05-13T23:12:42.440Z,14.30
2018-05-13T23:15:48.790Z,14.30
2018-05-13T23:18:54.583Z,14.20
2018-05-13T23:22:01.705Z,14.20
2018-05-13T23:25:08.430Z,14.10
2018-05-13T23:28:15.472Z,14.20
2018-05-13T23:31:21.543Z,14.20
2018-05-13T23:34:27.391Z,14.10
2018-05-13T23:37:34.770Z,14.20
2018-05-13T23:40:41.619Z,14.20
2018-05-13T23:43:48.399Z,14.10
2018-05-13T23:46:54.810Z,14.10
2018-05-13T23:50:00.563Z,14.20
2018-05-13T23:53:07.849Z,14.20
2018-05-13T23:56:14.877Z,14.20
2018-05-13T23:59:20.934Z,14.20
